createdAt,value
2022-12-11T00:01:19.794Z,98498.56
2022-12-11T00:03:48.721Z,98520.44
2022-12-11T00:06:21.652Z,98508.03
2022-12-11T00:08:52.686Z,98534.75
2022-12-11T00:11:22.678Z,98526.53
2022-12-11T00:13:51.406Z,98525.50
2022-12-11T00:16:25.293Z,98532.94
2022-12-11T00:18:55.618Z,98537.38
2022-12-11T00:21:25.594Z,98529.34
2022-12-11T00:23:54.354Z,98527.06
2022-12-11T00:26:22.470Z,98524.19
2022-12-11T00:28:55.556Z,98515.31
2022-12-11T00:31:25.119Z,98504.69
2022-12-11T00:33:53.713Z,98512.19
2022-12-11T00:36:26.156Z,98510.06
2022-12-11T00:38:55.386Z,98508.53
2022-12-11T00:41:24.022Z,98514.31
2022-12-11T00:43:52.504Z,98506.09
2022-12-11T00:46:22.059Z,98507.59
2022-12-11T00:48:51.175Z,98507.66
2022-12-11T00:51:19.742Z,98508.41
2022-12-11T00:53:49.696Z,98502.72
2022-12-11T00:56:22.027Z,98510.94
2022-12-11T00:58:51.181Z,98505.19
2022-12-11T01:01:21.777Z,98511.22
2022-12-11T01:03:50.727Z,98518.16
2022-12-11T01:06:21.286Z,98520.44
2022-12-11T01:09:12.685Z,98520.03
2022-12-11T01:11:42.012Z,98531.38
2022-12-11T01:14:11.416Z,98530.28
2022-12-11T01:16:40.090Z,98532.88
2022-12-11T01:19:08.264Z,98528.72
2022-12-11T01:21:36.650Z,98534.00
2022-12-11T01:24:07.230Z,98534.03
2022-12-11T01:26:36.165Z,98535.25
2022-12-11T01:29:04.613Z,98544.56
2022-12-11T01:31:33.903Z,98543.81
2022-12-11T01:34:02.316Z,98547.59
2022-12-11T01:36:30.819Z,98540.84
2022-12-11T01:38:59.419Z,98537.22
2022-12-11T01:41:29.394Z,98539.78
2022-12-11T01:44:03.302Z,98548.13
2022-12-11T01:46:36.531Z,98536.91
2022-12-11T01:49:08.733Z,98537.00
2022-12-11T01:51:41.707Z,98539.44
2022-12-11T01:54:14.257Z,98538.25
2022-12-11T01:56:46.202Z,98537.69
2022-12-11T01:59:19.068Z,98547.78
2022-12-11T02:01:51.698Z,98544.16
2022-12-11T02:04:21.408Z,98537.94
2022-12-11T02:06:54.999Z,98540.44
2022-12-11T02:09:26.257Z,98541.09
2022-12-11T02:12:05.451Z,98536.97
2022-12-11T02:14:42.280Z,98547.59
2022-12-11T02:17:16.047Z,98556.69
2022-12-11T02:19:59.323Z,98553.41
2022-12-11T02:22:41.971Z,98544.31
2022-12-11T02:25:22.247Z,98538.75
2022-12-11T02:27:58.502Z,98543.59
2022-12-11T02:30:28.828Z,98543.16
2022-12-11T02:32:59.102Z,98549.53
2022-12-11T02:35:32.850Z,98554.34
2022-12-11T02:38:10.704Z,98561.63
2022-12-11T02:40:42.161Z,98550.03
2022-12-11T02:43:14.295Z,98564.63
2022-12-11T02:45:46.731Z,98567.47
2022-12-11T02:48:18.647Z,98574.53
2022-12-11T02:50:49.304Z,98582.63
2022-12-11T02:53:21.518Z,98586.28
2022-12-11T02:55:56.047Z,98586.25
2022-12-11T02:58:28.023Z,98598.41
2022-12-11T03:00:58.371Z,98600.78
2022-12-11T03:03:27.126Z,98601.31
2022-12-11T03:05:55.546Z,98607.06
2022-12-11T03:08:24.197Z,98604.09
2022-12-11T03:10:52.692Z,98596.94
2022-12-11T03:13:23.710Z,98597.69
2022-12-11T03:16:05.720Z,98608.91
2022-12-11T03:18:40.791Z,98611.25
2022-12-11T03:21:16.072Z,98611.91
2022-12-11T03:23:53.733Z,98605.09
2022-12-11T03:26:24.299Z,98602.88
2022-12-11T03:29:00.110Z,98609.00
2022-12-11T03:31:36.468Z,98612.88
2022-12-11T03:34:12.549Z,98621.97
2022-12-11T03:36:43.111Z,98631.59
2022-12-11T03:39:17.060Z,98635.00
2022-12-11T03:41:47.567Z,98639.97
2022-12-11T03:44:18.290Z,98641.00
2022-12-11T03:46:49.745Z,98627.13
2022-12-11T03:49:21.089Z,98623.63
2022-12-11T03:51:53.410Z,98623.38
2022-12-11T03:54:22.362Z,98651.63
2022-12-11T03:56:54.856Z,98644.19
2022-12-11T03:59:23.463Z,98654.16
2022-12-11T04:01:53.494Z,98655.38
2022-12-11T04:04:22.251Z,98657.75
2022-12-11T04:06:50.418Z,98654.78
2022-12-11T04:09:19.020Z,98659.31
2022-12-11T04:11:47.278Z,98664.47
2022-12-11T04:14:33.770Z,98669.47
2022-12-11T04:17:03.806Z,98671.50
2022-12-11T04:19:52.429Z,98677.63
2022-12-11T04:22:52.749Z,98687.84
2022-12-11T04:25:21.246Z,98678.69
2022-12-11T04:27:53.185Z,98680.31
2022-12-11T04:30:26.933Z,98676.41
2022-12-11T04:32:59.376Z,98654.66
2022-12-11T04:35:30.666Z,98685.28
2022-12-11T04:37:59.427Z,98680.53
2022-12-11T04:40:27.674Z,98681.47
2022-12-11T04:42:56.081Z,98671.97
2022-12-11T04:45:24.565Z,98679.75
2022-12-11T04:47:53.013Z,98664.47
2022-12-11T04:50:23.225Z,98681.25
2022-12-11T04:52:51.783Z,98680.22
2022-12-11T04:55:20.498Z,98673.97
2022-12-11T04:57:48.721Z,98688.00
2022-12-11T05:00:18.524Z,98695.41
2022-12-11T05:02:47.172Z,98700.44
2022-12-11T05:05:15.639Z,98689.25
2022-12-11T05:08:01.957Z,98694.09
2022-12-11T05:10:30.607Z,98694.41
2022-12-11T05:12:59.253Z,98689.25
2022-12-11T05:15:27.405Z,98692.59
2022-12-11T05:17:55.781Z,98696.50
2022-12-11T05:20:24.317Z,98701.34
2022-12-11T05:22:53.950Z,98694.97
2022-12-11T05:25:23.012Z,98702.72
2022-12-11T05:27:51.415Z,98709.13
2022-12-11T05:30:20.044Z,98711.22
2022-12-11T05:32:48.228Z,98714.25
2022-12-11T05:35:16.789Z,98724.56
2022-12-11T05:37:45.375Z,98720.84
2022-12-11T05:40:16.013Z,98731.59
2022-12-11T05:42:44.462Z,98730.63
2022-12-11T05:45:13.380Z,98743.41
2022-12-11T05:47:42.005Z,98724.25
2022-12-11T05:50:11.177Z,98741.22
2022-12-11T05:52:39.728Z,98743.25
2022-12-11T05:55:09.897Z,98746.63
2022-12-11T05:57:40.012Z,98753.97
2022-12-11T06:00:13.560Z,98762.91
2022-12-11T06:02:42.186Z,98776.06
2022-12-11T06:05:10.970Z,98787.84
2022-12-11T06:07:39.653Z,98787.38
2022-12-11T06:10:08.886Z,98794.13
2022-12-11T06:12:38.350Z,98794.81
2022-12-11T06:15:09.754Z,98806.22
2022-12-11T06:17:38.535Z,98818.69
2022-12-11T06:20:14.581Z,98810.06
2022-12-11T06:22:43.354Z,98823.06
2022-12-11T06:25:14.636Z,98826.53
2022-12-11T06:27:46.087Z,98833.25
2022-12-11T06:30:16.692Z,98840.19
2022-12-11T06:32:45.519Z,98841.97
2022-12-11T06:35:13.881Z,98850.03
2022-12-11T06:37:42.664Z,98832.31
2022-12-11T06:40:11.886Z,98845.28
2022-12-11T06:42:40.669Z,98839.13
2022-12-11T06:45:10.592Z,98844.34
2022-12-11T06:47:40.576Z,98845.53
2022-12-11T06:50:09.651Z,98845.00
2022-12-11T06:52:38.050Z,98845.47
2022-12-11T06:55:07.746Z,98848.34
2022-12-11T06:57:36.287Z,98844.38
2022-12-11T07:00:05.880Z,98848.56
2022-12-11T07:02:34.493Z,98849.31
2022-12-11T07:05:05.069Z,98838.00
2022-12-11T07:07:33.711Z,98837.69
2022-12-11T07:10:08.092Z,98838.16
2022-12-11T07:12:37.878Z,98844.91
2022-12-11T07:15:07.414Z,98845.03
2022-12-11T07:17:36.095Z,98850.50
2022-12-11T07:20:06.835Z,98836.97
2022-12-11T07:22:35.459Z,98852.28
2022-12-11T07:25:03.864Z,98854.91
2022-12-11T07:27:32.550Z,98856.94
2022-12-11T07:30:00.978Z,98855.34
2022-12-11T07:32:30.712Z,98883.69
2022-12-11T07:34:59.208Z,98888.44
2022-12-11T07:37:29.162Z,98896.66
2022-12-11T07:39:57.736Z,98883.94
2022-12-11T07:42:26.303Z,98875.06
2022-12-11T07:44:55.017Z,98879.69
2022-12-11T07:47:23.200Z,98880.78
2022-12-11T07:49:51.551Z,98889.03
2022-12-11T07:52:19.945Z,98894.19
2022-12-11T07:54:49.973Z,98908.06
2022-12-11T07:57:18.466Z,98896.34
2022-12-11T07:59:48.197Z,98872.94
2022-12-11T08:02:18.978Z,98894.44
2022-12-11T08:04:47.595Z,98897.97
2022-12-11T08:07:16.117Z,98887.19
2022-12-11T08:09:44.621Z,98876.38
2022-12-11T08:12:14.679Z,98893.59
2022-12-11T08:14:43.279Z,98873.16
2022-12-11T08:17:12.983Z,98908.78
2022-12-11T08:19:45.088Z,98902.84
2022-12-11T08:22:14.607Z,98901.34
2022-12-11T08:24:43.450Z,98904.78
2022-12-11T08:27:12.176Z,98898.59
2022-12-11T08:29:43.632Z,98909.16
2022-12-11T08:32:14.063Z,98899.06
2022-12-11T08:34:53.894Z,98916.97
2022-12-11T08:37:26.102Z,98876.50
2022-12-11T08:40:25.646Z,98866.69
2022-12-11T08:43:06.270Z,98858.56
2022-12-11T08:45:39.327Z,98926.94
2022-12-11T08:48:08.214Z,98912.47
2022-12-11T08:50:36.453Z,98936.66
2022-12-11T08:53:05.231Z,98925.50
2022-12-11T08:55:33.815Z,98925.06
2022-12-11T08:58:02.311Z,98931.31
2022-12-11T09:00:32.664Z,98938.59
2022-12-11T09:03:02.619Z,98938.59
2022-12-11T09:05:31.585Z,98940.75
2022-12-11T09:08:00.214Z,98947.97
2022-12-11T09:10:28.500Z,98956.16
2022-12-11T09:12:57.040Z,98963.66
2022-12-11T09:15:25.550Z,98967.44
2022-12-11T09:17:55.751Z,98961.50
2022-12-11T09:20:25.812Z,98970.78
2022-12-11T09:22:54.399Z,98966.03
2022-12-11T09:25:22.900Z,98970.22
2022-12-11T09:27:51.410Z,98965.53
2022-12-11T09:30:20.215Z,98964.84
2022-12-11T09:32:48.408Z,98975.06
2022-12-11T09:35:17.226Z,98980.03
2022-12-11T09:37:47.184Z,98977.19
2022-12-11T09:40:15.995Z,98985.16
2022-12-11T09:42:54.433Z,98986.44
2022-12-11T09:45:22.929Z,98991.22
2022-12-11T09:47:55.185Z,98993.91
2022-12-11T09:50:26.579Z,98990.13
2022-12-11T09:53:06.246Z,98991.34
2022-12-11T09:55:45.524Z,99000.47
2022-12-11T09:58:24.386Z,98997.97
2022-12-11T10:01:03.618Z,99011.84
2022-12-11T10:03:47.059Z,98987.66
2022-12-11T10:06:22.212Z,99007.25
2022-12-11T10:09:04.685Z,99010.53
2022-12-11T10:11:56.681Z,99018.56
2022-12-11T10:14:34.372Z,99022.78
2022-12-11T10:17:13.600Z,99015.72
2022-12-11T10:19:45.457Z,99021.53
2022-12-11T10:22:19.666Z,99016.38
2022-12-11T10:25:10.639Z,99014.56
2022-12-11T10:27:43.620Z,99015.53
2022-12-11T10:30:18.362Z,99015.56
2022-12-11T10:32:56.005Z,99009.63
2022-12-11T10:35:33.526Z,99002.69
2022-12-11T10:38:13.224Z,98998.44
2022-12-11T10:40:45.975Z,98999.38
2022-12-11T10:43:14.529Z,98996.69
2022-12-11T10:45:52.772Z,98998.75
2022-12-11T10:48:25.198Z,98999.03
2022-12-11T10:51:00.215Z,98972.91
2022-12-11T10:53:29.526Z,98977.75
2022-12-11T10:56:00.114Z,99001.09
2022-12-11T10:58:34.407Z,99007.25
2022-12-11T11:01:11.763Z,98995.97
2022-12-11T11:03:54.951Z,98999.66
2022-12-11T11:06:25.915Z,99000.59
2022-12-11T11:08:56.286Z,99008.91
2022-12-11T11:11:29.543Z,99004.56
2022-12-11T11:14:13.559Z,99002.69
2022-12-11T11:16:44.507Z,98993.41
2022-12-11T11:19:22.604Z,99003.41
2022-12-11T11:21:54.844Z,98990.47
2022-12-11T11:24:28.930Z,98982.88
2022-12-11T11:27:14.741Z,98997.63
2022-12-11T11:29:53.351Z,98997.97
2022-12-11T11:32:25.454Z,98995.59
2022-12-11T11:34:54.043Z,99011.16
2022-12-11T11:37:33.702Z,98990.63
2022-12-11T11:40:09.552Z,98991.03
2022-12-11T11:42:47.008Z,98986.44
2022-12-11T11:45:22.019Z,98987.50
2022-12-11T11:48:00.133Z,98995.38
2022-12-11T11:50:34.147Z,98994.34
2022-12-11T11:53:07.552Z,98995.28
2022-12-11T11:55:46.655Z,98990.13
2022-12-11T11:58:23.097Z,99001.06
2022-12-11T12:00:55.057Z,98997.59
2022-12-11T12:03:25.557Z,98998.09
2022-12-11T12:05:59.414Z,99003.06
2022-12-11T12:08:42.967Z,98993.81
2022-12-11T12:11:22.845Z,98993.38
2022-12-11T12:14:17.645Z,98994.47
2022-12-11T12:17:07.366Z,99012.13
2022-12-11T12:19:47.885Z,99019.03
2022-12-11T12:22:29.653Z,99020.25
2022-12-11T12:25:11.925Z,98994.53
2022-12-11T12:27:52.418Z,99010.34
2022-12-11T12:30:24.307Z,98997.00
2022-12-11T12:33:14.657Z,99006.22
2022-12-11T12:36:06.807Z,99010.88
2022-12-11T12:38:47.940Z,99013.19
2022-12-11T12:41:22.129Z,99014.38
2022-12-11T12:44:15.942Z,99004.16
2022-12-11T12:46:59.849Z,99010.91
2022-12-11T12:49:41.979Z,99014.13
2022-12-11T12:52:16.978Z,99020.53
2022-12-11T12:55:09.122Z,99022.41
2022-12-11T12:57:59.808Z,99023.16
2022-12-11T13:03:38.604Z,99024.28
2022-12-11T13:06:10.668Z,99023.56
2022-12-11T13:08:51.933Z,99004.34
2022-12-11T13:11:47.883Z,99022.22
2022-12-11T13:14:41.203Z,98994.91
2022-12-11T13:22:25.758Z,99006.50
2022-12-11T13:25:02.056Z,99007.06
2022-12-11T13:27:40.352Z,98996.81
2022-12-11T13:30:23.637Z,99004.97
2022-12-11T13:33:17.402Z,99000.78
2022-12-11T13:35:48.300Z,98998.63
2022-12-11T13:38:20.723Z,98990.03
2022-12-11T13:40:54.481Z,98999.56
2022-12-11T13:43:27.526Z,98970.63
2022-12-11T13:45:59.760Z,98985.38
2022-12-11T13:48:30.635Z,98981.16
2022-12-11T13:51:01.727Z,98988.47
2022-12-11T13:53:31.136Z,98962.97
2022-12-11T13:56:02.926Z,98985.53
2022-12-11T13:58:35.974Z,98975.06
2022-12-11T14:01:12.928Z,98972.78
2022-12-11T14:03:44.900Z,98962.84
2022-12-11T14:06:19.123Z,98955.81
2022-12-11T14:08:51.803Z,98956.94
2022-12-11T14:11:28.231Z,98965.97
2022-12-11T14:13:59.563Z,98965.41
2022-12-11T14:16:28.791Z,98961.22
2022-12-11T14:19:02.878Z,98951.31
2022-12-11T14:21:35.793Z,98957.25
2022-12-11T14:24:06.793Z,98954.81
2022-12-11T14:26:38.727Z,98939.47
2022-12-11T14:29:08.185Z,98931.22
2022-12-11T14:31:39.779Z,98916.06
2022-12-11T14:34:14.890Z,98919.81
2022-12-11T14:36:47.161Z,98908.63
2022-12-11T14:39:25.115Z,98908.41
2022-12-11T14:41:59.678Z,98921.84
2022-12-11T14:44:36.775Z,98930.59
2022-12-11T14:47:11.675Z,98941.06
2022-12-11T14:49:48.684Z,98947.47
2022-12-11T14:52:25.324Z,98953.34
2022-12-11T14:54:58.412Z,98941.34
2022-12-11T14:57:32.151Z,98941.38
2022-12-11T15:00:01.144Z,98957.53
2022-12-11T15:02:33.485Z,98931.59
2022-12-11T15:05:19.209Z,98933.53
2022-12-11T15:08:00.526Z,98927.88
2022-12-11T15:10:36.090Z,98923.47
2022-12-11T15:13:06.102Z,98925.50
2022-12-11T15:15:47.431Z,98937.53
2022-12-11T15:18:25.938Z,98936.31
2022-12-11T15:21:00.428Z,98910.78
2022-12-11T15:23:36.452Z,98914.06
2022-12-11T15:26:08.198Z,98915.19
2022-12-11T15:28:40.889Z,98893.13
2022-12-11T15:31:26.613Z,98885.63
2022-12-11T15:33:55.913Z,98883.00
2022-12-11T15:36:27.637Z,98876.25
2022-12-11T15:38:58.309Z,98862.59
2022-12-11T15:41:27.228Z,98862.63
2022-12-11T15:43:59.247Z,98857.44
2022-12-11T15:46:28.496Z,98852.75
2022-12-11T15:48:58.863Z,98816.38
2022-12-11T15:51:27.775Z,98813.84
2022-12-11T15:53:58.855Z,98759.00
2022-12-11T15:56:28.069Z,98803.63
2022-12-11T15:59:18.606Z,98809.47
2022-12-11T16:01:47.766Z,98823.19
2022-12-11T16:04:17.947Z,98831.38
2022-12-11T16:06:49.266Z,98840.75
2022-12-11T16:09:20.060Z,98841.47
2022-12-11T16:11:48.865Z,98860.00
2022-12-11T16:14:21.268Z,98847.91
2022-12-11T16:16:53.032Z,98830.44
2022-12-11T16:19:21.712Z,98832.91
2022-12-11T16:22:04.807Z,98826.75
2022-12-11T16:24:39.797Z,98814.88
2022-12-11T16:27:10.755Z,98798.16
2022-12-11T16:29:41.324Z,98795.31
2022-12-11T16:32:35.605Z,98783.53
2022-12-11T16:35:07.655Z,98788.66
2022-12-11T16:37:38.564Z,98788.66
2022-12-11T16:40:14.790Z,98778.25
2022-12-11T16:42:48.521Z,98767.25
2022-12-11T16:45:25.371Z,98754.59
2022-12-11T16:48:08.913Z,98787.97
2022-12-11T16:50:40.628Z,98785.06
2022-12-11T16:53:17.712Z,98778.34
2022-12-11T16:55:52.074Z,98780.13
2022-12-11T16:58:29.788Z,98776.31
2022-12-11T17:01:05.030Z,98754.88
2022-12-11T17:03:33.787Z,98779.97
2022-12-11T17:06:02.378Z,98758.28
2022-12-11T17:08:30.806Z,98760.25
2022-12-11T17:11:01.051Z,98772.06
2022-12-11T17:13:35.697Z,98747.03
2022-12-11T17:16:06.866Z,98763.19
2022-12-11T17:18:41.077Z,98752.44
2022-12-11T17:21:13.780Z,98727.81
2022-12-11T17:23:42.908Z,98727.81
2022-12-11T17:26:13.364Z,98730.13
2022-12-11T17:28:46.744Z,98695.56
2022-12-11T17:31:21.752Z,98710.09
2022-12-11T17:34:23.860Z,98700.44
2022-12-11T17:36:54.234Z,98695.53
2022-12-11T17:39:22.696Z,98688.63
2022-12-11T17:41:53.412Z,98673.13
2022-12-11T17:44:22.922Z,98693.78
2022-12-11T17:46:53.714Z,98659.13
2022-12-11T17:49:22.413Z,98677.97
2022-12-11T17:51:51.533Z,98665.63
2022-12-11T17:54:25.892Z,98621.78
2022-12-11T17:56:55.961Z,98650.59
2022-12-11T17:59:25.737Z,98662.13
2022-12-11T18:01:58.599Z,98651.88
2022-12-11T18:04:27.303Z,98644.50
2022-12-11T18:06:58.362Z,98629.53
2022-12-11T18:09:30.006Z,98600.28
2022-12-11T18:12:00.649Z,98632.06
2022-12-11T18:14:32.583Z,98634.53
2022-12-11T18:17:12.594Z,98639.91
2022-12-11T18:19:56.119Z,98651.72
2022-12-11T18:22:25.604Z,98625.34
2022-12-11T18:24:58.582Z,98610.28
2022-12-11T18:27:51.813Z,98639.16
2022-12-11T18:30:32.259Z,98610.00
2022-12-11T18:33:06.037Z,98585.78
2022-12-11T18:35:36.912Z,98570.41
2022-12-11T18:38:08.508Z,98591.06
2022-12-11T18:40:37.398Z,98567.75
2022-12-11T18:43:08.184Z,98576.06
2022-12-11T18:45:36.953Z,98558.84
2022-12-11T18:48:06.527Z,98563.41
2022-12-11T18:50:35.548Z,98544.75
2022-12-11T18:53:06.031Z,98549.47
2022-12-11T18:55:45.611Z,98571.63
2022-12-11T18:58:16.784Z,98611.88
2022-12-11T19:00:48.242Z,98621.28
2022-12-11T19:03:17.060Z,98629.19
2022-12-11T19:05:45.241Z,98635.84
2022-12-11T19:08:16.132Z,98629.88
2022-12-11T19:10:52.840Z,98624.78
2022-12-11T19:13:22.931Z,98633.16
2022-12-11T19:15:51.675Z,98624.22
2022-12-11T19:18:20.227Z,98618.28
2022-12-11T19:20:58.019Z,98580.78
2022-12-11T19:23:34.086Z,98587.63
2022-12-11T19:26:22.538Z,98581.59
2022-12-11T19:29:49.678Z,98585.72
2022-12-11T19:32:31.972Z,98553.84
2022-12-11T19:35:59.978Z,98602.56
2022-12-11T19:38:55.325Z,98550.69
2022-12-11T19:41:37.918Z,98569.91
2022-12-11T19:44:19.931Z,98557.31
2022-12-11T19:47:04.312Z,98588.84
2022-12-11T19:50:31.437Z,98499.69
2022-12-11T19:53:15.641Z,98448.59
2022-12-11T19:55:53.591Z,98471.34
2022-12-11T19:58:22.432Z,98569.91
2022-12-11T20:01:09.429Z,98575.25
2022-12-11T20:04:00.198Z,98525.78
2022-12-11T20:06:41.007Z,98494.38
2022-12-11T20:09:19.671Z,98433.72
2022-12-11T20:11:50.978Z,98535.84
2022-12-11T20:14:22.999Z,98557.09
2022-12-11T20:17:10.879Z,98539.16
2022-12-11T20:19:48.053Z,98559.69
2022-12-11T20:22:24.431Z,98547.84
2022-12-11T20:24:56.135Z,98544.56
2022-12-11T20:27:31.541Z,98466.72
2022-12-11T20:30:32.829Z,98565.09
2022-12-11T20:32:53.095Z,98495.50
2022-12-11T20:35:35.033Z,98511.06
2022-12-11T20:38:05.562Z,98535.59
2022-12-11T20:40:39.672Z,98498.97
2022-12-11T20:43:08.407Z,98421.78
2022-12-11T20:45:48.097Z,98503.47
2022-12-11T20:48:17.168Z,98516.56
2022-12-11T20:50:56.483Z,98466.56
2022-12-11T20:53:35.988Z,98511.44
2022-12-11T20:56:12.446Z,98499.19
2022-12-11T20:58:41.335Z,98486.81
2022-12-11T21:01:16.060Z,98487.31
2022-12-11T21:03:45.268Z,98484.06
2022-12-11T21:06:23.858Z,98465.88
2022-12-11T21:08:54.309Z,98468.63
2022-12-11T21:11:25.862Z,98472.91
2022-12-11T21:13:54.753Z,98459.28
2022-12-11T21:16:24.864Z,98464.91
2022-12-11T21:18:56.513Z,98433.81
2022-12-11T21:21:27.679Z,98422.38
2022-12-11T21:24:13.784Z,98432.97
2022-12-11T21:26:44.939Z,98426.66
2022-12-11T21:29:14.034Z,98401.00
2022-12-11T21:31:49.179Z,98426.06
2022-12-11T21:34:25.352Z,98425.09
2022-12-11T21:36:58.570Z,98396.56
2022-12-11T21:39:29.276Z,98396.03
2022-12-11T21:42:00.716Z,98416.13
2022-12-11T21:47:19.869Z,98398.38
2022-12-11T21:49:48.702Z,98392.03
2022-12-11T21:52:18.399Z,98390.09
2022-12-11T21:54:52.278Z,98378.50
2022-12-11T21:57:28.981Z,98374.75
2022-12-11T22:00:00.751Z,98374.44
2022-12-11T22:02:52.759Z,98342.25
2022-12-11T22:05:21.329Z,98367.59
2022-12-11T22:07:51.307Z,98353.53
2022-12-11T22:10:20.181Z,98343.31
2022-12-11T22:12:48.785Z,98333.22
2022-12-11T22:15:17.546Z,98347.84
2022-12-11T22:17:45.709Z,98352.03
2022-12-11T22:20:16.571Z,98331.06
2022-12-11T22:22:48.250Z,98317.75
2022-12-11T22:25:18.886Z,98322.03
2022-12-11T22:27:47.673Z,98338.00
2022-12-11T22:30:20.056Z,98311.88
2022-12-11T22:32:58.284Z,98314.16
2022-12-11T22:35:27.657Z,98303.53
2022-12-11T22:38:17.227Z,98304.88
2022-12-11T22:40:48.094Z,98298.28
2022-12-11T22:43:17.561Z,98284.94
2022-12-11T22:45:48.183Z,98283.41
2022-12-11T22:48:17.202Z,98288.50
2022-12-11T22:50:46.239Z,98262.31
2022-12-11T22:53:15.044Z,98261.38
2022-12-11T22:55:43.662Z,98263.47
2022-12-11T22:58:18.573Z,98257.22
2022-12-11T23:00:50.191Z,98253.41
2022-12-11T23:03:21.253Z,98263.00
2022-12-11T23:05:50.274Z,98252.72
2022-12-11T23:08:19.720Z,98219.44
2022-12-11T23:10:48.361Z,98226.72
2022-12-11T23:13:18.457Z,98214.28
2022-12-11T23:15:47.151Z,98210.84
2022-12-11T23:18:15.919Z,98194.19
2022-12-11T23:20:45.081Z,98197.25
2022-12-11T23:23:14.594Z,98193.66
2022-12-11T23:25:46.082Z,98193.72
2022-12-11T23:28:17.138Z,98184.09
2022-12-11T23:30:47.223Z,98182.00
2022-12-11T23:33:17.093Z,98184.97
2022-12-11T23:35:56.878Z,98166.41
2022-12-11T23:38:32.516Z,98140.91
2022-12-11T23:41:11.964Z,98140.09
2022-12-11T23:43:48.697Z,98153.25
2022-12-11T23:46:45.544Z,98130.66
2022-12-11T23:49:18.793Z,98121.56
2022-12-11T23:52:04.516Z,98124.06
2022-12-11T23:54:43.270Z,98141.22
2022-12-11T23:57:19.584Z,98151.22
2022-12-11T23:59:48.563Z,98138.38
